Flight Track Log - Related Links

Times and Time Zones

All times are in EDT time to prevent confusion due to time zone crossing. See the SKW5550 flight status page for this flight to view local times or setup timezone preferences in your user account.

Time Position Orientation Groundspeed Altitude Reporting Facility
EDT Latitude Longitude Course Direction KTS MPH feet Rate Location/Type
Thu 07:58:28 AM 44.5444 -108.9839 28° Northeast 199 229 6,600  Level Salt Lake Center
Thu 07:59:28 AM 44.5686 -108.9258 60° Northeast 178 205 8,600 1,750 Climbing Salt Lake Center
Thu 08:00:28 AM 44.5125 -108.8842 152° Southeast 222 255 10,100 1,636 Climbing Salt Lake Center
Thu 08:01:29 AM 44.4403 -108.8611 167° South 252 290 11,900 1,587 Climbing Salt Lake Center
Thu 08:02:29 AM 44.3547 -108.8153 159° South 302 348 13,300 1,450 Climbing Salt Lake Center
Thu 08:03:00 AM 44.6148 -108.9514 28° Northeast  Level FlightAware Approximate
Thu 08:03:29 AM 44.2681 -108.7619 156° South 323 372 14,800  Level Salt Lake Center
Thu 08:04:30 AM 44.1539 -108.6956 157° South 354 407 17,000 1,884 Climbing Salt Lake Center
Thu 08:05:30 AM 44.0569 -108.6408 158° South 371 427 18,600 1,450 Climbing Salt Lake Center
Thu 08:06:30 AM 43.9603 -108.5844 157° South 376 433 19,900 1,240 Climbing Salt Lake Center
Thu 08:07:31 AM 43.8603 -108.5272 158° South 386 444 21,100 1,289 Climbing Salt Lake Center
Thu 08:08:31 AM 43.7606 -108.4708 158° South 388 447 22,500 1,289 Climbing Salt Lake Center
Thu 08:09:32 AM 43.6589 -108.4122 157° South 396 456 23,700 992 Climbing Salt Lake Center
Thu 08:10:32 AM 43.5547 -108.3550 158° South 402 463 24,500 700 Climbing Salt Lake Center
Thu 08:11:32 AM 43.4492 -108.2908 156° South 414 476 25,100 645 Climbing Salt Lake Center
Thu 08:12:33 AM 43.3544 -108.1864 141° Southeast 435 501 25,800 694 Climbing Salt Lake Center
Thu 08:13:33 AM 43.2586 -108.0839 142° Southeast 437 503 26,500 744 Climbing Salt Lake Center
Thu 08:14:34 AM 43.1603 -107.9814 143° Southeast 445 512 27,300 744 Climbing Salt Lake Center
Thu 08:15:34 AM 43.0614 -107.8756 142° Southeast 451 519 28,000 645 Climbing Salt Lake Center
Thu 08:16:35 AM 42.9600 -107.7706 143° Southeast 457 526 28,600 645 Climbing Salt Lake Center
Thu 08:17:35 AM 42.8553 -107.6597 142° Southeast 457 526 29,300 694 Climbing Salt Lake Center
Thu 08:18:36 AM 42.7567 -107.5567 142° Southeast 465 535 30,000 694 Climbing Salt Lake Center
Thu 08:19:36 AM 42.6406 -107.4369 143° Southeast 467 537 30,700 496 Climbing Salt Lake Center
Thu 08:20:37 AM 42.5419 -107.3350 143° Southeast 467 537 31,000 149 Climbing Salt Lake Center
Thu 08:21:37 AM 42.4392 -107.2300 143° Southeast 477 549 31,000  Level Salt Lake Center
Thu 08:22:11 AM 42.3700 -107.1575 142° Southeast 489 563 31,000  Level Denver Center
Thu 08:23:12 AM 42.2631 -107.0497 143° Southeast 498 573 31,000  Level Denver Center
Thu 08:24:13 AM 42.1553 -106.9408 143° Southeast 505 581 31,000  Level Denver Center
Thu 08:25:14 AM 42.0300 -106.8128 143° Southeast 507 583 31,000  Level Denver Center
Thu 08:26:15 AM 41.9181 -106.7011 143° Southeast 515 593 31,000  Level Denver Center
Thu 08:27:16 AM 41.8081 -106.5919 143° Southeast 515 593 31,000  Level Denver Center
Thu 08:28:16 AM 41.6931 -106.4778 143° Southeast 517 595 31,000  Level Denver Center
Thu 08:29:29 AM 41.5633 -106.3506 144° Southeast 518 596 31,000  Level Denver Center
Thu 08:30:30 AM 41.4358 -106.2269 144° Southeast 511 588 31,000  Level Denver Center
Thu 08:31:31 AM 41.3069 -106.1047 145° Southeast 511 588 31,000  Level Denver Center
Thu 08:32:32 AM 41.1969 -105.9997 144° Southeast 510 587 31,000  Level Denver Center
Thu 08:33:33 AM 41.0686 -105.8794 145° Southeast 508 585 31,000  Level Denver Center
Thu 08:34:34 AM 40.9522 -105.7675 144° Southeast 510 587 31,000  Level Denver Center
Thu 08:35:35 AM 40.8378 -105.6600 145° Southeast 507 583 31,000 -492 Level Denver Center
Thu 08:36:36 AM 40.7242 -105.5536 145° Southeast 502 578 30,000 -2,293 Descending Denver Center
Thu 08:37:38 AM 40.6142 -105.4506 145° Southeast 492 566 26,300 -3,443 Descending Denver Center
Thu 08:38:38 AM 40.5525 -105.3472 128° Southeast 460 529 23,000 -4,230 Descending Denver Center
Thu 08:39:40 AM 40.4756 -105.1764 121° Southeast 426 490 17,700 -3,024 Descending Denver Center
Thu 08:40:41 AM 40.4422 -105.0542 110° East 357 411 16,800 -1,082 Descending Denver Center
Thu 08:41:42 AM 40.4083 -104.9389 111° Southeast 341 392 15,500 -1,082 Descending Denver Center
Thu 08:42:43 AM 40.3742 -104.8397 114° Southeast 307 353 14,600 -1,075 Descending Denver Center
Thu 08:43:56 AM 40.3092 -104.7753 143° Southeast 282 325 13,100 -1,333 Descending Denver Center
Thu 08:44:58 AM 40.2297 -104.7161 150° Southeast 283 326 11,600 -1,268 Descending Denver Center
Thu 08:45:59 AM 40.1553 -104.6936 167° South 252 290 10,500 -934 Descending Denver Center
Thu 08:47:00 AM 40.0894 -104.6939 180° South 233 268 9,700 -1,180 Descending Denver Center
Thu 08:48:01 AM 40.0319 -104.6950 181° South 210 242 8,100 -1,426 Descending Denver Center
Thu 08:49:02 AM 39.9736 -104.6944 180° South 205 236 6,800 -1,024 Descending Denver Center
Thu 08:50:04 AM 39.9258 -104.6956 181° South 160 184 6,000 -732 Descending Denver Center
Thu 08:51:05 AM 39.8883 -104.6961 181° South 147 169 5,300 -689 Descending Denver Center

Login

Don't have an account? Register now (free) for customized features, flight alerts, and more!